createdAt,value
2022-10-17T00:02:48.443Z,12.67
2022-10-17T00:05:51.503Z,12.63
2022-10-17T00:08:54.031Z,12.66
2022-10-17T00:11:56.809Z,12.80
2022-10-17T00:14:59.704Z,11.85
2022-10-17T00:18:02.725Z,12.57
2022-10-17T00:21:05.489Z,12.10
2022-10-17T00:24:08.366Z,12.13
2022-10-17T00:27:10.899Z,12.24
2022-10-17T00:30:15.832Z,12.16
2022-10-17T00:33:18.326Z,12.43
2022-10-17T00:36:24.686Z,12.46
2022-10-17T00:39:27.283Z,12.61
2022-10-17T00:42:30.512Z,12.65
2022-10-17T00:45:33.486Z,12.62
2022-10-17T00:48:36.290Z,12.61
2022-10-17T00:51:44.011Z,12.41
2022-10-17T00:54:52.073Z,12.47
2022-10-17T00:57:55.597Z,12.52
2022-10-17T01:00:58.995Z,12.68
2022-10-17T01:04:01.642Z,12.63
2022-10-17T01:07:04.877Z,12.72
2022-10-17T01:10:08.806Z,12.62
2022-10-17T01:13:16.491Z,12.49
2022-10-17T01:16:26.962Z,12.48
2022-10-17T01:19:38.424Z,12.48
2022-10-17T01:22:49.344Z,12.40
2022-10-17T01:26:07.106Z,12.24
2022-10-17T01:29:09.832Z,12.22
2022-10-17T01:32:22.067Z,12.27
2022-10-17T01:35:34.144Z,12.27
2022-10-17T01:38:50.809Z,12.17
2022-10-17T01:42:01.969Z,12.15
2022-10-17T01:45:14.079Z,12.18
2022-10-17T01:48:22.380Z,12.16
2022-10-17T01:51:31.405Z,12.17
2022-10-17T01:54:42.670Z,12.04
2022-10-17T01:57:50.544Z,12.16
2022-10-17T02:00:54.951Z,12.29
2022-10-17T02:03:59.508Z,12.37
2022-10-17T02:07:10.830Z,12.36
2022-10-17T02:10:25.323Z,12.25
2022-10-17T02:13:33.676Z,12.22
2022-10-17T02:17:01.240Z,12.30
2022-10-17T02:20:16.120Z,12.29
2022-10-17T02:23:28.155Z,12.16
2022-10-17T02:26:40.386Z,12.10
2022-10-17T02:30:12.567Z,12.02
2022-10-17T02:33:30.953Z,11.94
2022-10-17T02:36:39.098Z,12.02
2022-10-17T02:39:44.148Z,11.93
2022-10-17T02:42:48.675Z,11.92
2022-10-17T02:45:52.712Z,11.94
2022-10-17T02:49:01.742Z,11.92
2022-10-17T02:52:12.514Z,11.79
2022-10-17T02:55:23.235Z,11.86
2022-10-17T02:58:32.933Z,11.71
2022-10-17T03:01:37.005Z,11.71
2022-10-17T03:04:43.517Z,11.75
2022-10-17T03:07:46.225Z,11.70
2022-10-17T03:10:49.230Z,11.83
2022-10-17T03:13:53.997Z,11.70
2022-10-17T03:16:57.257Z,11.72
2022-10-17T03:20:01.014Z,11.65
2022-10-17T03:23:05.596Z,11.78
2022-10-17T03:26:10.293Z,11.67
2022-10-17T03:29:14.133Z,11.72
2022-10-17T03:32:17.600Z,11.70
2022-10-17T03:35:20.773Z,11.61
2022-10-17T03:38:24.099Z,11.59
2022-10-17T03:41:27.840Z,11.59
2022-10-17T03:44:30.575Z,11.46
2022-10-17T03:47:34.473Z,11.45
2022-10-17T03:50:37.756Z,11.46
2022-10-17T03:53:40.731Z,11.48
2022-10-17T03:56:44.021Z,11.42
2022-10-17T03:59:47.566Z,11.33
2022-10-17T04:02:50.365Z,11.32
2022-10-17T04:05:53.740Z,11.25
2022-10-17T04:08:56.599Z,11.19
2022-10-17T04:12:00.300Z,11.29
2022-10-17T04:15:03.380Z,11.22
2022-10-17T04:18:06.385Z,11.24
2022-10-17T04:21:11.196Z,11.25
2022-10-17T04:24:14.380Z,11.27
2022-10-17T04:27:17.584Z,11.28
2022-10-17T04:30:22.841Z,11.18
2022-10-17T04:33:26.188Z,11.23
2022-10-17T04:36:29.175Z,11.21
2022-10-17T04:39:31.884Z,11.15
2022-10-17T04:42:34.842Z,11.08
2022-10-17T04:45:37.765Z,10.98
2022-10-17T04:48:42.004Z,10.95
2022-10-17T04:51:45.595Z,10.89
2022-10-17T04:54:48.827Z,10.84
2022-10-17T04:57:51.520Z,10.80
2022-10-17T05:00:56.082Z,10.84
2022-10-17T05:03:59.134Z,10.83
2022-10-17T05:07:03.571Z,10.77
2022-10-17T05:10:07.743Z,10.81
2022-10-17T05:13:11.958Z,10.81
2022-10-17T05:16:15.939Z,10.71
2022-10-17T05:19:18.910Z,10.85
2022-10-17T05:22:21.852Z,10.89
2022-10-17T05:25:24.834Z,11.11
2022-10-17T05:28:27.776Z,11.67
2022-10-17T05:31:32.721Z,12.18
2022-10-17T05:34:35.247Z,12.73
2022-10-17T05:37:38.283Z,13.06
2022-10-17T05:40:41.285Z,13.33
2022-10-17T05:43:45.446Z,13.44
2022-10-17T05:46:49.858Z,13.67
2022-10-17T05:49:52.954Z,14.08
2022-10-17T05:52:55.943Z,14.52
2022-10-17T05:56:01.198Z,14.28
2022-10-17T05:59:05.532Z,14.44
2022-10-17T06:02:12.322Z,14.58
2022-10-17T06:05:15.691Z,14.83
2022-10-17T06:08:18.888Z,15.25
2022-10-17T06:11:21.841Z,15.58
2022-10-17T06:14:24.382Z,15.75
2022-10-17T06:17:28.227Z,15.79
2022-10-17T06:20:30.848Z,15.88
2022-10-17T06:23:34.406Z,16.25
2022-10-17T06:26:38.086Z,16.28
2022-10-17T06:29:42.050Z,17.22
2022-10-17T06:32:44.697Z,17.23
2022-10-17T06:35:52.943Z,17.19
2022-10-17T06:38:55.846Z,17.23
2022-10-17T06:42:01.213Z,17.69
2022-10-17T06:45:11.260Z,17.42
2022-10-17T06:48:14.876Z,17.53
2022-10-17T06:51:17.573Z,17.70
2022-10-17T06:54:20.946Z,18.76
2022-10-17T06:57:23.864Z,19.18
2022-10-17T07:00:27.084Z,18.71
2022-10-17T07:03:30.371Z,18.85
2022-10-17T07:06:34.156Z,19.47
2022-10-17T07:09:37.525Z,19.53
2022-10-17T07:12:40.471Z,19.35
2022-10-17T07:15:43.731Z,19.37
2022-10-17T07:18:49.528Z,20.45
2022-10-17T07:21:52.744Z,20.94
2022-10-17T07:24:55.885Z,20.10
2022-10-17T07:27:59.983Z,20.49
2022-10-17T07:31:08.752Z,19.41
2022-10-17T07:34:12.063Z,20.40
2022-10-17T07:37:15.057Z,20.63
2022-10-17T07:40:21.302Z,20.96
2022-10-17T07:43:25.797Z,21.24
2022-10-17T07:46:29.823Z,21.14
2022-10-17T07:49:32.878Z,21.36
2022-10-17T07:52:35.747Z,21.66
2022-10-17T07:55:39.560Z,22.31
2022-10-17T07:58:42.895Z,21.66
2022-10-17T08:01:45.859Z,20.81
2022-10-17T08:04:48.701Z,21.50
2022-10-17T08:07:51.296Z,21.88
2022-10-17T08:10:55.561Z,22.20
2022-10-17T08:13:58.472Z,22.25
2022-10-17T08:17:01.520Z,22.03
2022-10-17T08:20:05.712Z,22.25
2022-10-17T08:23:08.720Z,22.02
2022-10-17T08:26:13.531Z,22.25
2022-10-17T08:29:17.142Z,23.38
2022-10-17T08:32:25.803Z,22.56
2022-10-17T08:35:29.298Z,22.62
2022-10-17T08:38:35.330Z,22.57
2022-10-17T08:41:54.141Z,22.87
2022-10-17T08:45:02.958Z,22.81
2022-10-17T08:48:12.681Z,24.23
2022-10-17T08:51:30.284Z,23.59
2022-10-17T08:54:40.581Z,24.97
2022-10-17T08:57:43.836Z,23.40
2022-10-17T09:01:17.793Z,24.26
2022-10-17T09:04:51.643Z,23.27
2022-10-17T09:08:16.061Z,23.74
2022-10-17T09:11:27.509Z,25.48
2022-10-17T09:14:45.638Z,25.89
2022-10-17T09:17:58.208Z,26.51
2022-10-17T09:21:22.721Z,26.40
2022-10-17T09:24:36.501Z,26.32
2022-10-17T09:28:21.425Z,25.49
2022-10-17T09:31:29.305Z,26.18
2022-10-17T09:34:34.741Z,26.24
2022-10-17T09:37:38.114Z,26.13
2022-10-17T09:40:41.310Z,23.71
2022-10-17T09:43:43.944Z,25.31
2022-10-17T09:47:02.925Z,26.10
2022-10-17T09:50:15.013Z,25.74
2022-10-17T09:53:30.931Z,27.66
2022-10-17T09:56:57.988Z,25.71
2022-10-17T10:00:04.903Z,26.72
2022-10-17T10:03:21.926Z,25.39
2022-10-17T10:06:24.731Z,25.11
2022-10-17T10:09:30.820Z,26.29
2022-10-17T10:12:37.837Z,26.48
2022-10-17T10:15:41.414Z,25.45
2022-10-17T10:18:47.432Z,26.21
2022-10-17T10:22:01.990Z,25.17
2022-10-17T10:25:14.766Z,26.05
2022-10-17T10:28:17.786Z,26.81
2022-10-17T10:31:28.567Z,25.91
2022-10-17T10:34:32.558Z,25.96
2022-10-17T10:37:44.702Z,25.05
2022-10-17T10:40:54.539Z,25.41
2022-10-17T10:43:57.660Z,26.71
2022-10-17T10:47:22.674Z,26.40
2022-10-17T10:51:09.502Z,28.85
2022-10-17T10:54:55.476Z,28.23
2022-10-17T10:58:03.953Z,27.14
2022-10-17T11:01:16.793Z,26.08
2022-10-17T11:04:23.637Z,26.74
2022-10-17T11:07:46.731Z,26.11
2022-10-17T11:11:08.310Z,26.13
2022-10-17T11:14:25.016Z,24.84
2022-10-17T11:17:46.090Z,23.98
2022-10-17T11:21:04.458Z,24.54
2022-10-17T11:24:20.570Z,24.53
2022-10-17T11:27:24.853Z,26.32
2022-10-17T11:30:46.783Z,24.78
2022-10-17T11:34:04.554Z,25.33
2022-10-17T11:37:16.426Z,26.31
2022-10-17T11:40:25.574Z,26.60
2022-10-17T11:44:01.182Z,24.34
2022-10-17T11:47:18.652Z,24.51
2022-10-17T11:54:24.697Z,25.17
2022-10-17T11:57:41.148Z,26.29
2022-10-17T12:00:57.919Z,25.61
2022-10-17T12:04:30.730Z,25.63
2022-10-17T12:07:49.383Z,25.57
2022-10-17T12:11:01.135Z,25.17
2022-10-17T12:14:29.944Z,24.56
2022-10-17T12:17:39.344Z,23.58
2022-10-17T12:20:43.117Z,23.18
2022-10-17T12:23:56.042Z,22.34
2022-10-17T12:26:58.768Z,22.86
2022-10-17T12:30:16.766Z,22.43
2022-10-17T12:33:22.957Z,22.66
2022-10-17T12:36:25.808Z,22.37
2022-10-17T12:39:28.910Z,22.51
2022-10-17T12:42:33.558Z,22.51
2022-10-17T12:45:47.696Z,22.17
2022-10-17T12:49:04.601Z,22.69
2022-10-17T12:52:17.640Z,22.37
2022-10-17T12:55:24.643Z,22.29
2022-10-17T12:58:27.330Z,22.59
2022-10-17T13:01:33.217Z,22.56
2022-10-17T13:04:36.856Z,22.53
2022-10-17T13:07:42.545Z,22.72
2022-10-17T13:10:51.629Z,22.45
2022-10-17T13:13:59.231Z,22.16
2022-10-17T13:17:04.437Z,22.04
2022-10-17T13:20:28.914Z,22.18
2022-10-17T13:23:36.844Z,22.10
2022-10-17T13:26:45.666Z,22.04
2022-10-17T13:29:48.149Z,22.13
2022-10-17T13:32:51.197Z,22.14
2022-10-17T13:36:00.310Z,21.80
2022-10-17T13:39:12.468Z,22.27
2022-10-17T13:42:32.200Z,22.06
2022-10-17T13:45:38.318Z,22.04
2022-10-17T13:48:41.801Z,22.03
2022-10-17T13:51:46.992Z,21.64
2022-10-17T13:54:52.307Z,21.72
2022-10-17T13:57:55.178Z,21.75
2022-10-17T14:00:58.221Z,21.64
2022-10-17T14:04:19.464Z,21.65
2022-10-17T14:08:05.540Z,21.63
2022-10-17T14:11:02.828Z,21.49
2022-10-17T14:14:20.760Z,21.50
2022-10-17T14:17:29.374Z,21.41
2022-10-17T14:21:08.140Z,21.49
2022-10-17T14:24:24.655Z,21.37
2022-10-17T14:27:27.662Z,21.67
2022-10-17T14:30:56.856Z,21.49
2022-10-17T14:34:03.302Z,21.37
2022-10-17T14:37:14.853Z,21.40
2022-10-17T14:40:25.398Z,21.23
2022-10-17T14:43:30.732Z,21.30
2022-10-17T14:46:36.729Z,21.17
2022-10-17T14:49:41.059Z,21.37
2022-10-17T14:53:02.563Z,21.17
2022-10-17T14:56:23.543Z,21.04
2022-10-17T14:59:52.266Z,21.00
2022-10-17T15:02:51.430Z,20.96
2022-10-17T15:05:56.002Z,20.82
2022-10-17T15:08:59.675Z,20.80
2022-10-17T15:12:07.193Z,20.77
2022-10-17T15:15:10.395Z,20.71
2022-10-17T15:18:14.722Z,20.63
2022-10-17T15:21:26.683Z,20.55
2022-10-17T15:24:40.148Z,20.48
2022-10-17T15:27:43.126Z,20.41
2022-10-17T15:30:46.050Z,20.32
2022-10-17T15:33:49.775Z,20.31
2022-10-17T15:36:54.043Z,20.24
2022-10-17T15:39:56.871Z,20.14
2022-10-17T15:43:02.790Z,20.08
2022-10-17T15:46:12.130Z,19.87
2022-10-17T15:49:18.259Z,19.79
2022-10-17T15:52:22.259Z,19.68
2022-10-17T15:55:25.315Z,19.54
2022-10-17T15:58:35.701Z,19.56
2022-10-17T16:01:39.687Z,19.51
2022-10-17T16:04:43.228Z,19.33
2022-10-17T16:07:46.822Z,19.31
2022-10-17T16:10:50.440Z,19.20
2022-10-17T16:13:55.861Z,19.19
2022-10-17T16:17:00.658Z,19.13
2022-10-17T16:20:03.483Z,19.06
2022-10-17T16:23:08.443Z,18.90
2022-10-17T16:26:14.074Z,18.86
2022-10-17T16:29:17.131Z,18.86
2022-10-17T16:32:20.349Z,18.72
2022-10-17T16:35:25.929Z,18.60
2022-10-17T16:38:28.794Z,18.57
2022-10-17T16:41:35.962Z,18.72
2022-10-17T16:44:41.800Z,18.54
2022-10-17T16:47:45.042Z,18.48
2022-10-17T16:50:47.871Z,18.38
2022-10-17T16:53:55.473Z,18.21
2022-10-17T16:56:58.234Z,18.12
2022-10-17T17:00:01.367Z,18.05
2022-10-17T17:03:04.164Z,18.03
2022-10-17T17:06:09.006Z,17.89
2022-10-17T17:09:11.523Z,17.79
2022-10-17T17:12:14.341Z,17.75
2022-10-17T17:15:17.088Z,17.74
2022-10-17T17:18:27.743Z,17.67
2022-10-17T17:21:31.732Z,17.64
2022-10-17T17:24:34.874Z,17.41
2022-10-17T17:27:48.922Z,17.51
2022-10-17T17:30:56.952Z,17.38
2022-10-17T17:34:04.809Z,17.47
2022-10-17T17:37:09.478Z,17.32
2022-10-17T17:40:14.525Z,17.20
2022-10-17T17:43:17.603Z,17.18
2022-10-17T17:46:22.428Z,17.07
2022-10-17T17:49:25.406Z,16.97
2022-10-17T17:52:29.793Z,17.03
2022-10-17T17:55:33.590Z,16.97
2022-10-17T17:58:38.370Z,16.87
2022-10-17T18:01:41.715Z,16.88
2022-10-17T18:04:44.630Z,16.65
2022-10-17T18:07:47.193Z,16.56
2022-10-17T18:10:54.542Z,16.42
2022-10-17T18:14:00.101Z,16.41
2022-10-17T18:17:06.807Z,16.36
2022-10-17T18:20:10.276Z,16.43
2022-10-17T18:23:14.303Z,16.37
2022-10-17T18:26:17.065Z,16.41
2022-10-17T18:29:20.616Z,16.22
2022-10-17T18:32:23.226Z,16.22
2022-10-17T18:35:26.436Z,16.11
2022-10-17T18:38:29.484Z,16.04
2022-10-17T18:41:33.705Z,16.22
2022-10-17T18:44:36.531Z,16.21
2022-10-17T18:47:44.492Z,16.23
2022-10-17T18:50:47.301Z,16.02
2022-10-17T18:53:52.989Z,16.04
2022-10-17T18:56:56.758Z,16.01
2022-10-17T18:59:59.793Z,15.94
2022-10-17T19:03:04.982Z,16.00
2022-10-17T19:06:09.750Z,15.91
2022-10-17T19:09:14.201Z,16.00
2022-10-17T19:12:19.773Z,15.89
2022-10-17T19:15:25.173Z,15.73
2022-10-17T19:18:29.232Z,15.74
2022-10-17T19:21:32.545Z,15.63
2022-10-17T19:24:35.731Z,15.66
2022-10-17T19:27:40.955Z,15.62
2022-10-17T19:30:44.121Z,15.66
2022-10-17T19:33:48.005Z,15.58
2022-10-17T19:36:51.711Z,15.63
2022-10-17T19:39:54.453Z,15.57
2022-10-17T19:42:58.168Z,15.60
2022-10-17T19:46:03.523Z,15.56
2022-10-17T19:49:07.326Z,15.63
2022-10-17T19:52:09.795Z,15.51
2022-10-17T19:55:12.630Z,15.55
2022-10-17T19:58:15.375Z,15.48
2022-10-17T20:01:21.837Z,15.40
2022-10-17T20:04:24.882Z,15.40
2022-10-17T20:07:27.432Z,15.30
2022-10-17T20:10:34.153Z,15.28
2022-10-17T20:13:37.884Z,15.33
2022-10-17T20:16:41.542Z,15.39
2022-10-17T20:19:44.476Z,15.11
2022-10-17T20:22:47.575Z,15.07
2022-10-17T20:26:06.767Z,15.18
2022-10-17T20:29:19.789Z,15.05
2022-10-17T20:32:22.281Z,15.04
2022-10-17T20:35:25.056Z,15.01
2022-10-17T20:38:27.603Z,14.98
2022-10-17T20:41:30.383Z,15.03
2022-10-17T20:44:33.028Z,14.97
2022-10-17T20:47:45.974Z,15.00
2022-10-17T20:50:51.927Z,15.01
2022-10-17T20:53:54.820Z,14.91
2022-10-17T20:56:59.888Z,14.75
2022-10-17T21:00:08.325Z,14.74
2022-10-17T21:03:11.817Z,14.66
2022-10-17T21:06:16.723Z,14.79
2022-10-17T21:09:20.486Z,14.73
2022-10-17T21:12:36.624Z,14.56
2022-10-17T21:15:45.871Z,14.67
2022-10-17T21:18:51.846Z,14.57
2022-10-17T21:21:54.585Z,14.50
2022-10-17T21:24:57.619Z,14.48
2022-10-17T21:28:00.114Z,14.33
2022-10-17T21:31:14.428Z,14.41
2022-10-17T21:34:24.632Z,14.43
2022-10-17T21:37:30.059Z,14.40
2022-10-17T21:40:32.806Z,14.43
2022-10-17T21:43:36.885Z,14.44
2022-10-17T21:46:39.574Z,14.42
2022-10-17T21:49:42.736Z,14.51
2022-10-17T21:52:45.453Z,14.44
2022-10-17T21:55:48.178Z,14.47
2022-10-17T21:58:51.661Z,14.33
2022-10-17T22:01:54.580Z,14.30
2022-10-17T22:04:57.522Z,14.30
2022-10-17T22:08:00.716Z,14.23
2022-10-17T22:11:09.095Z,13.97
2022-10-17T22:14:14.136Z,13.98
2022-10-17T22:17:17.193Z,14.00
2022-10-17T22:20:20.428Z,13.78
2022-10-17T22:23:23.621Z,13.95
2022-10-17T22:26:28.156Z,13.77
2022-10-17T22:29:31.020Z,13.74
2022-10-17T22:32:34.124Z,13.55
2022-10-17T22:35:36.975Z,13.51
2022-10-17T22:38:39.430Z,13.29
2022-10-17T22:41:43.373Z,13.02
2022-10-17T22:44:46.684Z,13.10
2022-10-17T22:47:49.655Z,13.27
2022-10-17T22:50:54.143Z,12.97
2022-10-17T22:53:56.985Z,12.99
2022-10-17T22:56:59.511Z,13.19
2022-10-17T23:00:02.421Z,12.99
2022-10-17T23:03:05.154Z,12.67
2022-10-17T23:06:08.151Z,12.49
2022-10-17T23:09:13.688Z,12.71
2022-10-17T23:12:16.675Z,12.56
2022-10-17T23:15:19.882Z,12.48
2022-10-17T23:18:24.426Z,12.33
2022-10-17T23:21:28.480Z,12.19
2022-10-17T23:24:31.583Z,12.28
2022-10-17T23:27:35.657Z,12.40
2022-10-17T23:30:40.076Z,12.10
2022-10-17T23:33:45.059Z,11.89
2022-10-17T23:36:48.093Z,11.88
2022-10-17T23:39:50.774Z,12.06
2022-10-17T23:42:53.659Z,12.24
2022-10-17T23:45:56.077Z,12.38
2022-10-17T23:48:59.209Z,12.47
2022-10-17T23:52:02.536Z,12.05
2022-10-17T23:55:05.987Z,12.21
2022-10-17T23:58:08.597Z,12.24
